Time;durP1;ratioP1;P1;durP2;ratioP2;P2;SDS_P1;SDS_P2;PMS_P1;PMS_P2;Temp;Humidity;BMP_temperature;BMP_pressure;BME280_temperature;BME280_humidity;BME280_pressure;Samples;Min_cycle;Max_cycle;Signal;HPM_P1;HPM_P2
2023/03/15 01:51:46;;;;;;;5.97;1.20;;;3.10;99.90;;;;;;6210908;22;20028;-90
2023/03/15 01:54:21;;;;;;;10.63;1.55;;;2.90;99.90;;;;;;6241730;23;20012;-90
2023/03/15 01:56:52;;;;;;;4.03;1.55;;;2.80;99.90;;;;;;6243443;23;20379;-89
2023/03/15 01:59:26;;;;;;;8.18;1.48;;;2.80;99.90;;;;;;6242369;22;20012;-88
2023/03/15 02:01:55;;;;;;;5.85;1.20;;;2.80;99.90;;;;;;6242949;22;20016;-88
2023/03/15 02:04:30;;;;;;;8.88;1.15;;;2.80;99.90;;;;;;6240241;23;20024;-88
2023/03/15 02:06:59;;;;;;;3.88;0.77;;;2.80;99.90;;;;;;6242136;22;20027;-90
2023/03/15 02:09:58;;;;;;;5.75;2.05;;;2.90;99.90;;;;;;6240264;23;20051;-89
2023/03/15 02:12:25;;;;;;;3.78;1.10;;;2.90;99.90;;;;;;6241221;22;20020;-88
2023/03/15 02:14:52;;;;;;;8.70;1.40;;;2.90;99.90;;;;;;6241766;22;20026;-89
2023/03/15 02:17:24;;;;;;;6.53;1.60;;;2.80;99.90;;;;;;6241172;22;20448;-90
2023/03/15 02:20:17;;;;;;;2.88;0.80;;;2.80;99.90;;;;;;6240114;23;20034;-90
2023/03/15 02:22:52;;;;;;;4.43;0.90;;;2.70;99.90;;;;;;6241047;23;20480;-90
2023/03/15 02:25:30;;;;;;;4.60;1.02;;;2.70;99.90;;;;;;6241799;22;20011;-90
2023/03/15 02:27:57;;;;;;;6.40;1.00;;;2.60;99.90;;;;;;6241784;22;20087;-88
2023/03/15 02:30:22;;;;;;;7.45;1.20;;;2.60;99.90;;;;;;6239974;22;20295;-90
2023/03/15 02:32:48;;;;;;;5.55;0.82;;;2.60;99.90;;;;;;6241542;22;20083;-91
2023/03/15 02:35:23;;;;;;;3.80;0.90;;;2.60;99.90;;;;;;6241902;23;20048;-90
2023/03/15 02:37:49;;;;;;;3.08;0.90;;;2.60;99.90;;;;;;6242034;22;20008;-90
2023/03/15 02:40:20;;;;;;;3.80;0.88;;;2.50;99.90;;;;;;6241697;22;20008;-89
2023/03/15 02:42:49;;;;;;;5.85;0.90;;;2.50;99.90;;;;;;6240001;23;20027;-89
2023/03/15 02:45:15;;;;;;;4.93;0.82;;;2.50;99.90;;;;;;6240311;22;20369;-89
2023/03/15 02:47:42;;;;;;;8.85;1.38;;;2.40;99.90;;;;;;6240265;23;20020;-88
2023/03/15 02:50:08;;;;;;;5.05;1.05;;;2.40;99.90;;;;;;6242095;22;20051;-89
2023/03/15 02:52:33;;;;;;;4.05;0.82;;;2.40;99.90;;;;;;6241600;22;20380;-90
2023/03/15 02:55:01;;;;;;;5.53;0.88;;;2.40;99.90;;;;;;6240567;23;20098;-90
2023/03/15 02:57:27;;;;;;;6.75;1.00;;;2.40;99.90;;;;;;6239120;23;20023;-90
2023/03/15 02:59:53;;;;;;;2.92;0.68;;;2.30;99.90;;;;;;6239279;23;20048;-90
2023/03/15 03:02:20;;;;;;;7.57;1.10;;;2.40;99.90;;;;;;6240922;22;20020;-90
2023/03/15 03:04:46;;;;;;;7.13;1.20;;;2.30;99.90;;;;;;6239530;23;20048;-89
2023/03/15 03:07:12;;;;;;;6.30;1.15;;;2.20;99.90;;;;;;6239030;23;20367;-89
2023/03/15 03:09:37;;;;;;;5.18;1.10;;;2.10;99.90;;;;;;6241610;23;20092;-89
2023/03/15 03:12:03;;;;;;;4.25;0.90;;;2.10;99.90;;;;;;6242356;23;20426;-89
2023/03/15 03:14:30;;;;;;;7.30;1.38;;;2.10;99.90;;;;;;6238255;23;20012;-90
2023/03/15 03:16:55;;;;;;;7.20;1.00;;;2.00;99.90;;;;;;6241445;22;20029;-89
2023/03/15 03:19:24;;;;;;;6.63;1.13;;;2.00;99.90;;;;;;6239588;23;20044;-89
2023/03/15 03:21:52;;;;;;;4.63;0.93;;;2.00;99.90;;;;;;6242038;22;20008;-89
2023/03/15 03:24:18;;;;;;;5.82;0.93;;;1.90;99.90;;;;;;6241615;22;20326;-89
2023/03/15 03:26:46;;;;;;;4.82;1.08;;;1.90;99.90;;;;;;6241328;22;20040;-89
2023/03/15 03:29:15;;;;;;;7.65;1.00;;;1.90;99.90;;;;;;6239988;23;20106;-89
2023/03/15 03:31:42;;;;;;;2.42;0.85;;;1.90;99.90;;;;;;6240939;22;20020;-91
2023/03/15 03:34:09;;;;;;;4.97;1.08;;;1.80;99.90;;;;;;6241200;22;20384;-90
2023/03/15 03:36:35;;;;;;;5.82;0.85;;;1.80;99.90;;;;;;6240119;22;20362;-89
2023/03/15 03:39:01;;;;;;;9.90;1.10;;;1.80;99.90;;;;;;6241476;22;20016;-90
2023/03/15 03:41:27;;;;;;;4.85;1.00;;;1.70;99.90;;;;;;6240406;22;20012;-90
2023/03/15 03:43:52;;;;;;;4.97;0.95;;;1.70;99.90;;;;;;6240691;23;20012;-89
2023/03/15 03:46:18;;;;;;;4.43;0.98;;;1.60;99.90;;;;;;6240566;23;20004;-89
2023/03/15 03:48:43;;;;;;;6.97;1.88;;;1.60;99.90;;;;;;6238507;23;20093;-89
2023/03/15 03:51:10;;;;;;;8.60;1.13;;;1.60;99.90;;;;;;6240710;23;20012;-89
2023/03/15 03:53:36;;;;;;;3.08;0.80;;;1.50;99.90;;;;;;6240517;22;20027;-89
2023/03/15 03:56:04;;;;;;;6.10;0.90;;;1.50;99.90;;;;;;6263894;22;20070;-90
2023/03/15 03:58:30;;;;;;;7.60;1.35;;;1.50;99.90;;;;;;6239251;22;20012;-90
2023/03/15 04:00:55;;;;;;;3.28;0.70;;;1.50;99.90;;;;;;6265016;22;20057;-89
2023/03/15 04:03:26;;;;;;;8.05;1.33;;;1.50;99.90;;;;;;6238401;23;20396;-89
2023/03/15 04:05:58;;;;;;;6.20;0.93;;;1.50;99.90;;;;;;6239811;22;20016;-89
2023/03/15 04:08:25;;;;;;;5.45;1.17;;;1.50;99.90;;;;;;6238051;23;20016;-90
2023/03/15 04:10:52;;;;;;;7.63;1.40;;;1.50;99.90;;;;;;6241437;22;20035;-90
2023/03/15 04:13:19;;;;;;;4.53;0.80;;;1.50;99.90;;;;;;6240114;22;20012;-89
2023/03/15 04:15:45;;;;;;;5.43;0.93;;;1.50;99.90;;;;;;6238847;23;20008;-88
2023/03/15 04:18:10;;;;;;;4.60;1.00;;;1.50;99.90;;;;;;6240700;22;20074;-89
2023/03/15 04:20:36;;;;;;;4.15;1.02;;;1.50;99.90;;;;;;6240524;23;20430;-89
2023/03/15 04:23:02;;;;;;;8.85;1.35;;;1.50;99.90;;;;;;6240738;23;20012;-89
2023/03/15 04:25:27;;;;;;;5.75;1.05;;;1.60;99.90;;;;;;6239423;23;20405;-90
2023/03/15 04:28:01;;;;;;;9.35;1.73;;;1.60;99.90;;;;;;6239206;23;20016;-89
2023/03/15 04:30:28;;;;;;;7.63;1.25;;;1.60;99.90;;;;;;6239520;22;20008;-90
2023/03/15 04:32:57;;;;;;;5.22;1.00;;;1.60;99.90;;;;;;6240149;22;20012;-89
2023/03/15 04:35:29;;;;;;;5.05;1.10;;;1.60;99.90;;;;;;6237514;23;20020;-89
2023/03/15 04:37:55;;;;;;;5.38;0.90;;;1.60;99.90;;;;;;6240120;22;20027;-90
2023/03/15 04:40:22;;;;;;;5.80;1.10;;;1.60;99.90;;;;;;6239127;22;20398;-89
2023/03/15 04:42:55;;;;;;;7.47;1.15;;;1.60;99.90;;;;;;6238895;23;20019;-89
2023/03/15 04:45:24;;;;;;;6.60;1.15;;;1.60;99.90;;;;;;6239848;22;20012;-90
2023/03/15 04:47:51;;;;;;;7.15;1.17;;;1.50;99.90;;;;;;6240718;22;20016;-89
2023/03/15 04:50:16;;;;;;;8.73;1.00;;;1.50;99.90;;;;;;6239257;22;20095;-89
2023/03/15 04:52:42;;;;;;;4.82;0.93;;;1.40;99.90;;;;;;6238973;23;20094;-89
2023/03/15 04:55:09;;;;;;;6.20;1.33;;;1.40;99.90;;;;;;6239579;23;20040;-89
2023/03/15 04:57:35;;;;;;;5.03;0.98;;;1.30;99.90;;;;;;6240050;22;20031;-89
2023/03/15 05:00:00;;;;;;;3.10;0.70;;;1.30;99.90;;;;;;6238953;23;20019;-89
2023/03/15 05:02:26;;;;;;;3.20;0.85;;;1.30;99.90;;;;;;6239473;22;20502;-89
2023/03/15 05:04:52;;;;;;;5.95;1.02;;;1.30;99.90;;;;;;6239988;23;20023;-89
2023/03/15 05:07:17;;;;;;;5.25;0.95;;;1.30;99.90;;;;;;6239637;23;20009;-89
2023/03/15 05:09:45;;;;;;;5.35;1.23;;;1.30;99.90;;;;;;6237385;23;20116;-88
2023/03/15 05:12:12;;;;;;;5.57;1.00;;;1.30;99.90;;;;;;6263793;22;20027;-89
2023/03/15 05:14:37;;;;;;;2.85;0.90;;;1.30;99.90;;;;;;6238803;22;20067;-89
2023/03/15 05:17:03;;;;;;;4.40;1.00;;;1.30;99.90;;;;;;6240165;23;20012;-89
2023/03/15 05:19:33;;;;;;;3.85;1.38;;;1.30;99.90;;;;;;6237181;23;20564;-89
2023/03/15 05:21:59;;;;;;;4.20;1.23;;;1.30;99.90;;;;;;6240454;22;20366;-89
2023/03/15 05:24:25;;;;;;;3.47;0.70;;;1.30;99.90;;;;;;6236223;23;20040;-88
2023/03/15 05:26:53;;;;;;;5.80;1.00;;;1.30;99.90;;;;;;6240169;23;20093;-89
2023/03/15 05:29:22;;;;;;;6.68;1.00;;;1.30;99.90;;;;;;6239660;22;20063;-88
2023/03/15 05:31:48;;;;;;;6.72;0.93;;;1.40;99.90;;;;;;6240259;22;20330;-89
2023/03/15 05:34:14;;;;;;;5.97;0.93;;;1.40;99.90;;;;;;6236755;23;20019;-89
2023/03/15 05:36:40;;;;;;;3.50;1.08;;;1.40;99.90;;;;;;6237634;23;20386;-89
2023/03/15 05:39:07;;;;;;;3.22;0.77;;;1.40;99.90;;;;;;6238101;23;20036;-89
2023/03/15 05:41:33;;;;;;;5.13;1.10;;;1.40;99.90;;;;;;6238755;23;20012;-89
2023/03/15 05:43:59;;;;;;;2.33;0.70;;;1.50;99.90;;;;;;6239634;23;20134;-87
2023/03/15 05:46:24;;;;;;;5.60;1.40;;;1.50;99.90;;;;;;6241431;22;20016;-89
2023/03/15 05:48:50;;;;;;;5.20;0.90;;;1.50;99.90;;;;;;6239608;23;20016;-89
2023/03/15 05:51:16;;;;;;;4.07;0.90;;;1.50;99.90;;;;;;6241111;23;20096;-90
2023/03/15 05:53:41;;;;;;;6.65;1.23;;;1.60;99.90;;;;;;6242614;22;20376;-90
2023/03/15 05:56:07;;;;;;;7.28;1.15;;;1.60;99.90;;;;;;6241473;23;20004;-89
2023/03/15 05:58:34;;;;;;;5.57;1.08;;;1.60;99.90;;;;;;6241100;23;20016;-88
2023/03/15 06:01:01;;;;;;;5.38;0.88;;;1.60;99.90;;;;;;6243272;23;20016;-89
2023/03/15 06:03:26;;;;;;;7.57;1.65;;;1.70;99.90;;;;;;6242707;22;20441;-89
2023/03/15 06:05:52;;;;;;;4.70;0.70;;;1.60;99.90;;;;;;6241389;23;20095;-88
2023/03/15 06:08:20;;;;;;;4.60;0.85;;;1.70;99.90;;;;;;6240709;23;20012;-88
2023/03/15 06:10:49;;;;;;;4.80;0.82;;;1.60;99.90;;;;;;6241425;22;20334;-88
2023/03/15 06:13:15;;;;;;;4.85;1.95;;;1.60;99.90;;;;;;6241129;23;20009;-88
2023/03/15 06:15:40;;;;;;;4.00;1.48;;;1.60;99.90;;;;;;6241035;23;20083;-88
2023/03/15 06:18:07;;;;;;;2.58;0.70;;;1.60;99.90;;;;;;6242129;23;20004;-89
2023/03/15 06:20:32;;;;;;;3.70;0.80;;;1.60;99.90;;;;;;6241652;23;20330;-88
2023/03/15 06:22:58;;;;;;;4.47;1.13;;;1.60;99.90;;;;;;6241703;22;20012;-89
2023/03/15 06:25:24;;;;;;;4.50;0.98;;;1.60;99.90;;;;;;6241278;23;20055;-89
2023/03/15 06:27:49;;;;;;;5.97;0.98;;;1.60;99.90;;;;;;6239846;23;20048;-87
2023/03/15 06:30:15;;;;;;;3.50;0.70;;;1.70;99.90;;;;;;6241813;22;20480;-88
2023/03/15 06:32:41;;;;;;;2.70;0.85;;;1.70;99.90;;;;;;6242014;22;20004;-87
2023/03/15 06:35:07;;;;;;;4.13;1.70;;;1.70;99.90;;;;;;6242543;22;20023;-89
2023/03/15 06:37:35;;;;;;;4.28;1.10;;;1.70;99.90;;;;;;6240629;22;20012;-87
2023/03/15 06:40:07;;;;;;;5.60;1.10;;;1.60;99.90;;;;;;6242359;22;20022;-88
2023/03/15 06:42:33;;;;;;;4.45;1.27;;;1.60;99.90;;;;;;6241038;22;20013;-90
2023/03/15 06:45:00;;;;;;;4.32;1.20;;;1.60;99.90;;;;;;6241971;22;20453;-88
2023/03/15 06:47:27;;;;;;;4.22;1.00;;;1.70;99.90;;;;;;6240243;22;20008;-87
2023/03/15 06:49:52;;;;;;;6.05;1.52;;;1.70;99.90;;;;;;6239037;23;20020;-89
2023/03/15 06:52:18;;;;;;;4.07;1.05;;;1.70;99.90;;;;;;6240405;23;20392;-88
2023/03/15 06:54:44;;;;;;;5.72;1.17;;;1.70;99.90;;;;;;6241530;22;20075;-89
2023/03/15 06:57:09;;;;;;;5.22;0.90;;;1.80;99.90;;;;;;6240570;23;20025;-87
2023/03/15 06:59:35;;;;;;;6.05;1.42;;;1.90;99.90;;;;;;6240514;22;20079;-88
2023/03/15 07:02:01;;;;;;;2.90;1.02;;;1.90;99.90;;;;;;6241394;23;20008;-88
2023/03/15 07:04:26;;;;;;;4.10;0.82;;;2.00;99.90;;;;;;6240274;23;20030;-88
2023/03/15 07:06:52;;;;;;;4.55;0.85;;;2.00;99.90;;;;;;6241013;23;20360;-88
2023/03/15 07:09:18;;;;;;;3.70;0.95;;;2.00;99.90;;;;;;6238842;23;20038;-89
2023/03/15 07:11:44;;;;;;;3.63;0.82;;;2.10;99.90;;;;;;6240768;22;20018;-89
2023/03/15 07:14:09;;;;;;;6.70;1.08;;;2.20;99.90;;;;;;6241253;23;20310;-88
2023/03/15 07:16:35;;;;;;;2.05;0.80;;;2.30;99.90;;;;;;6241232;23;20047;-88
2023/03/15 07:19:01;;;;;;;6.13;0.95;;;2.30;99.90;;;;;;6241886;23;20008;-89
2023/03/15 07:21:27;;;;;;;6.45;1.30;;;2.40;99.90;;;;;;6239388;23;20417;-88
2023/03/15 07:23:53;;;;;;;4.82;0.82;;;2.50;99.90;;;;;;6241146;22;20027;-89
2023/03/15 07:26:18;;;;;;;6.13;1.02;;;2.50;99.90;;;;;;6240991;22;20091;-89
2023/03/15 07:28:44;;;;;;;3.60;0.90;;;2.60;99.90;;;;;;6241297;23;20016;-88
2023/03/15 07:31:11;;;;;;;6.38;1.17;;;2.70;99.90;;;;;;6240668;22;20054;-89
2023/03/15 07:33:37;;;;;;;7.20;1.60;;;2.80;99.90;;;;;;6239386;22;20103;-89
2023/03/15 07:36:04;;;;;;;4.95;0.80;;;2.80;99.90;;;;;;6213440;23;20083;-89
2023/03/15 07:38:30;;;;;;;5.80;0.90;;;2.90;99.90;;;;;;6238934;23;20488;-89
2023/03/15 07:40:57;;;;;;;6.03;1.58;;;3.00;99.90;;;;;;6240936;22;20012;-90
2023/03/15 07:43:23;;;;;;;6.95;1.00;;;3.10;99.90;;;;;;6239259;22;20015;-90
2023/03/15 07:45:49;;;;;;;3.83;1.10;;;3.10;99.90;;;;;;6241103;22;20008;-89
2023/03/15 07:48:15;;;;;;;2.80;0.70;;;3.20;99.90;;;;;;6240049;22;20012;-89
2023/03/15 07:50:41;;;;;;;5.57;1.10;;;3.30;99.90;;;;;;6239334;22;20070;-89
2023/03/15 07:53:07;;;;;;;6.85;1.10;;;3.40;99.90;;;;;;6239963;23;20015;-89
2023/03/15 07:55:33;;;;;;;5.10;1.33;;;3.50;99.90;;;;;;6239638;23;20023;-88
2023/03/15 07:57:58;;;;;;;5.13;1.30;;;3.60;99.90;;;;;;6238893;23;20083;-89
2023/03/15 08:00:24;;;;;;;3.78;0.90;;;3.70;99.90;;;;;;6263811;22;20052;-89
2023/03/15 08:02:50;;;;;;;5.82;0.95;;;3.80;99.90;;;;;;6240002;23;20015;-90
2023/03/15 08:05:19;;;;;;;7.60;1.30;;;3.90;99.90;;;;;;6238544;23;20311;-89
2023/03/15 08:07:46;;;;;;;6.43;1.13;;;3.90;99.90;;;;;;6239089;23;20012;-89
2023/03/15 08:10:13;;;;;;;5.07;1.08;;;4.00;99.90;;;;;;6240031;22;20012;-91
2023/03/15 08:12:41;;;;;;;6.57;1.30;;;4.10;99.90;;;;;;6240194;22;20368;-90
2023/03/15 08:15:11;;;;;;;4.18;1.30;;;4.20;99.90;;;;;;6238374;23;20016;-89
2023/03/15 08:17:38;;;;;;;3.33;0.85;;;4.20;99.90;;;;;;6238007;23;20020;-89
2023/03/15 08:20:05;;;;;;;6.20;1.27;;;4.40;99.90;;;;;;6239651;22;20090;-91
2023/03/15 08:22:31;;;;;;;7.15;1.15;;;4.50;99.90;;;;;;6239315;22;20019;-90
2023/03/15 08:24:56;;;;;;;8.13;1.15;;;4.50;99.90;;;;;;6240211;23;20465;-90
2023/03/15 08:27:23;;;;;;;6.05;1.20;;;4.50;99.90;;;;;;6238267;23;20502;-90
2023/03/15 08:29:50;;;;;;;4.35;1.45;;;4.60;99.90;;;;;;6238865;23;20016;-90
2023/03/15 08:32:17;;;;;;;7.40;1.30;;;4.70;99.90;;;;;;6237153;23;20099;-89
2023/03/15 08:34:42;;;;;;;3.60;0.80;;;4.80;99.90;;;;;;6239248;22;20079;-90
2023/03/15 08:37:10;;;;;;;8.45;0.98;;;4.90;99.90;;;;;;6240676;23;20379;-92
2023/03/15 08:39:36;;;;;;;8.27;1.48;;;4.90;99.90;;;;;;6213073;23;20020;-88
2023/03/15 08:42:02;;;;;;;7.20;1.02;;;5.00;99.90;;;;;;6238664;23;20020;-89
2023/03/15 08:44:28;;;;;;;9.52;2.20;;;5.00;99.90;;;;;;6236356;23;20023;-91
2023/03/15 08:46:53;;;;;;;8.73;1.45;;;5.20;99.90;;;;;;6237216;23;20091;-90
2023/03/15 08:49:19;;;;;;;8.00;1.38;;;5.20;99.90;;;;;;6237706;23;20026;-90
2023/03/15 08:51:44;;;;;;;6.07;1.10;;;5.20;99.90;;;;;;6237884;23;20011;-88
2023/03/15 08:54:12;;;;;;;1.15;0.60;;;5.30;99.90;;;;;;6240245;23;20024;-91
2023/03/15 08:56:38;;;;;;;4.55;1.00;;;5.50;99.90;;;;;;6238188;23;20044;-90
2023/03/15 08:59:04;;;;;;;4.75;1.10;;;5.60;99.90;;;;;;6239202;23;20349;-90
2023/03/15 09:01:29;;;;;;;5.88;1.45;;;5.80;99.90;;;;;;6237367;23;20016;-90
2023/03/15 09:03:55;;;;;;;4.93;1.15;;;5.90;99.90;;;;;;6239681;23;20008;-90
2023/03/15 09:06:21;;;;;;;7.95;2.33;;;5.90;99.90;;;;;;6237479;23;20012;-88
2023/03/15 09:08:46;;;;;;;4.28;0.82;;;5.90;99.90;;;;;;6240853;22;20012;-90
2023/03/15 09:11:12;;;;;;;12.18;2.30;;;5.90;99.90;;;;;;6240106;23;20013;-88
2023/03/15 09:13:38;;;;;;;4.78;1.10;;;5.90;99.90;;;;;;6238908;23;20111;-89
2023/03/15 09:16:04;;;;;;;4.32;1.25;;;5.80;99.90;;;;;;6239103;23;20388;-89
2023/03/15 09:18:30;;;;;;;7.97;2.30;;;5.80;99.90;;;;;;6238349;23;20012;-90
2023/03/15 09:20:56;;;;;;;10.15;2.28;;;5.90;99.90;;;;;;6240507;23;20066;-90
2023/03/15 09:23:21;;;;;;;8.15;1.60;;;6.00;99.90;;;;;;6239932;23;20024;-91
2023/03/15 09:25:47;;;;;;;5.18;1.25;;;6.00;99.90;;;;;;6240877;23;20039;-91
2023/03/15 09:28:13;;;;;;;4.85;1.23;;;6.10;99.90;;;;;;6240023;23;20012;-91
2023/03/15 09:30:40;;;;;;;4.22;1.02;;;6.10;99.90;;;;;;6241000;23;20091;-91
2023/03/15 09:33:06;;;;;;;11.32;2.55;;;6.10;99.90;;;;;;6242088;22;20012;-90
2023/03/15 09:35:32;;;;;;;6.80;1.20;;;6.10;99.90;;;;;;6241468;22;20023;-91
2023/03/15 09:37:59;;;;;;;8.82;2.20;;;6.20;99.90;;;;;;6240182;23;20016;-91
2023/03/15 09:40:33;;;;;;;8.85;2.03;;;6.20;99.90;;;;;;6241415;22;20031;-87
2023/03/15 09:43:22;;;;;;;6.82;1.85;;;6.20;99.90;;;;;;6240912;23;20788;-89
2023/03/15 09:46:10;;;;;;;6.22;1.50;;;6.30;99.90;;;;;;6239831;23;20012;-88
2023/03/15 09:49:04;;;;;;;5.03;1.10;;;6.30;99.90;;;;;;6241483;22;20330;-92
2023/03/15 09:51:34;;;;;;;5.00;1.10;;;6.40;99.90;;;;;;6239326;23;20024;-92
2023/03/15 09:54:04;;;;;;;6.20;1.55;;;6.40;99.90;;;;;;6240631;23;20422;-91
2023/03/15 09:56:55;;;;;;;8.43;1.88;;;6.50;99.90;;;;;;6238899;23;20104;-89
2023/03/15 09:59:24;;;;;;;6.38;1.17;;;6.50;99.90;;;;;;6239430;23;20012;-91
2023/03/15 10:01:54;;;;;;;4.68;1.30;;;6.50;99.90;;;;;;6240488;23;20020;-89
2023/03/15 10:04:40;;;;;;;7.18;1.92;;;6.60;99.90;;;;;;6238956;23;20070;-90
2023/03/15 10:07:11;;;;;;;7.50;1.75;;;6.70;99.90;;;;;;6240097;23;20012;-90
2023/03/15 10:09:37;;;;;;;5.38;0.88;;;6.70;99.90;;;;;;6240224;23;20013;-90
2023/03/15 10:12:14;;;;;;;4.95;1.00;;;6.80;99.90;;;;;;6239914;23;20026;-92
2023/03/15 10:14:40;;;;;;;7.95;2.05;;;6.90;99.90;;;;;;6213849;23;20016;-90
2023/03/15 10:17:11;;;;;;;8.20;1.77;;;7.00;99.90;;;;;;6241302;22;20066;-92
2023/03/15 10:19:44;;;;;;;13.05;4.55;;;7.00;99.90;;;;;;6213857;23;20071;-90
2023/03/15 10:22:12;;;;;;;10.18;2.42;;;7.00;99.90;;;;;;6239641;23;20121;-91
2023/03/15 10:25:00;;;;;;;7.05;1.85;;;7.10;99.90;;;;;;6240469;23;20393;-88
2023/03/15 10:27:38;;;;;;;8.85;2.35;;;7.10;99.90;;;;;;6239771;23;20027;-91
2023/03/15 10:30:16;;;;;;;5.25;1.10;;;7.20;99.90;;;;;;6241241;22;20015;-89
2023/03/15 10:32:44;;;;;;;7.03;1.10;;;7.30;99.90;;;;;;6241544;22;20012;-89
2023/03/15 10:35:14;;;;;;;11.43;2.30;;;7.30;99.90;;;;;;6239747;23;20012;-89
2023/03/15 10:37:41;;;;;;;9.43;2.20;;;7.30;99.90;;;;;;6214044;23;20022;-92
2023/03/15 10:40:14;;;;;;;9.02;2.03;;;7.40;99.90;;;;;;6240770;23;20408;-91
2023/03/15 10:42:44;;;;;;;9.45;1.95;;;7.50;99.90;;;;;;6239669;23;20395;-91
2023/03/15 10:45:17;;;;;;;8.00;2.00;;;7.30;99.90;;;;;;6240241;23;20020;-90
2023/03/15 10:47:43;;;;;;;2.65;0.80;;;7.10;99.90;;;;;;6214600;23;20061;-90
2023/03/15 10:50:15;;;;;;;7.22;1.50;;;7.10;99.90;;;;;;6239256;23;20016;-91
2023/03/15 10:52:44;;;;;;;3.53;0.70;;;7.00;99.90;;;;;;6239685;23;20035;-90
2023/03/15 10:55:20;;;;;;;6.25;1.70;;;6.90;99.90;;;;;;6240154;23;20016;-91
2023/03/15 10:57:58;;;;;;;8.52;2.13;;;6.90;99.90;;;;;;6239685;23;20012;-88
2023/03/15 11:00:28;;;;;;;8.15;1.70;;;7.00;99.90;;;;;;6214740;23;20040;-90
2023/03/15 11:03:19;;;;;;;7.75;1.83;;;7.10;99.90;;;;;;6242242;22;20091;-92
2023/03/15 11:05:50;;;;;;;6.20;1.10;;;7.20;99.90;;;;;;6241347;23;20043;-89
2023/03/15 11:08:19;;;;;;;3.13;0.80;;;7.10;99.90;;;;;;6239477;23;20012;-90
2023/03/15 11:10:53;;;;;;;8.38;2.10;;;7.00;99.90;;;;;;6241987;22;20016;-92
2023/03/15 11:13:21;;;;;;;3.45;0.80;;;7.10;99.90;;;;;;6238715;23;20039;-88
2023/03/15 11:16:02;;;;;;;5.22;0.85;;;7.10;99.90;;;;;;6214758;23;20020;-92
2023/03/15 11:18:54;;;;;;;8.07;1.13;;;7.30;99.90;;;;;;6241016;22;20008;-91
2023/03/15 11:21:24;;;;;;;7.55;1.65;;;7.20;99.90;;;;;;6240395;22;20008;-94
2023/03/15 11:23:51;;;;;;;6.63;1.65;;;7.30;99.90;;;;;;6214359;23;20016;-94
2023/03/15 11:26:24;;;;;;;5.97;1.55;;;7.40;99.90;;;;;;6238478;23;20012;-91
2023/03/15 11:29:06;;;;;;;3.60;1.10;;;7.40;99.90;;;;;;6239414;23;20012;-91
2023/03/15 11:31:34;;;;;;;6.55;1.25;;;7.40;99.90;;;;;;6241381;22;20326;-92
2023/03/15 11:34:23;;;;;;;6.72;1.50;;;7.50;99.90;;;;;;6238645;23;20016;-90
2023/03/15 11:36:56;;;;;;;7.28;1.80;;;7.70;99.90;;;;;;6213515;23;20066;-90
2023/03/15 11:39:50;;;;;;;6.57;1.50;;;7.70;99.90;;;;;;6238045;23;20095;-92
2023/03/15 11:42:34;;;;;;;8.20;1.63;;;7.70;99.90;;;;;;6240267;22;20023;-90
2023/03/15 11:45:19;;;;;;;8.82;1.83;;;7.70;99.90;;;;;;6240302;22;20012;-91
2023/03/15 11:47:56;;;;;;;4.10;1.05;;;7.80;99.90;;;;;;6236350;23;20048;-90
2023/03/15 11:50:21;;;;;;;8.77;1.52;;;7.80;99.90;;;;;;6236821;23;20078;-85
2023/03/15 11:52:49;;;;;;;4.10;0.93;;;7.90;99.90;;;;;;6243086;23;20016;-92
2023/03/15 11:55:26;;;;;;;5.78;1.63;;;8.00;99.90;;;;;;6210807;23;20010;-92
2023/03/15 11:57:52;;;;;;;8.02;1.60;;;8.00;99.90;;;;;;6242258;22;20138;-93
2023/03/15 12:00:41;;;;;;;5.30;1.20;;;8.00;99.90;;;;;;6216921;23;20034;-90
2023/03/15 12:03:26;;;;;;;6.30;1.60;;;8.10;99.90;;;;;;6214991;23;20331;-90
2023/03/15 12:06:11;;;;;;;6.97;1.70;;;8.30;99.90;;;;;;6264219;22;20091;-86
2023/03/15 12:08:54;;;;;;;8.00;1.70;;;8.50;99.90;;;;;;6236734;23;20023;-90
2023/03/15 12:11:20;;;;;;;9.52;1.95;;;8.60;99.90;;;;;;6237629;23;20053;-87
2023/03/15 12:13:52;;;;;;;7.57;1.73;;;8.60;99.90;;;;;;6238429;23;20449;-88
2023/03/15 12:16:24;;;;;;;7.75;2.08;;;8.70;99.90;;;;;;6238318;22;20046;-85
2023/03/15 12:18:50;;;;;;;6.90;1.70;;;8.70;99.90;;;;;;6237571;23;20090;-86
2023/03/15 12:21:30;;;;;;;6.50;1.73;;;8.70;99.90;;;;;;6239122;22;20008;-86
2023/03/15 12:24:05;;;;;;;9.18;2.00;;;8.70;99.90;;;;;;6238928;23;20502;-89
2023/03/15 12:26:50;;;;;;;8.07;1.80;;;8.50;99.90;;;;;;6237415;22;20012;-86
2023/03/15 12:29:23;;;;;;;7.15;1.70;;;8.30;99.90;;;;;;6237444;23;20377;-86
2023/03/15 12:31:53;;;;;;;6.85;1.50;;;8.40;99.90;;;;;;6213279;23;20012;-87
2023/03/15 12:34:43;;;;;;;6.22;1.42;;;8.50;99.90;;;;;;6240516;23;20016;-88
2023/03/15 12:37:27;;;;;;;6.85;1.55;;;8.60;99.90;;;;;;6241527;22;20039;-88
2023/03/15 12:40:21;;;;;;;9.68;2.00;;;8.60;99.90;;;;;;6241415;22;20035;-89
2023/03/15 12:42:47;;;;;;;9.38;1.70;;;8.50;99.90;;;;;;6197982;22;20069;-94
2023/03/15 12:45:15;;;;;;;6.55;1.50;;;8.50;99.90;;;;;;6248655;23;20020;-89
2023/03/15 12:47:50;;;;;;;8.32;1.60;;;8.60;99.90;;;;;;6242418;23;20072;-89
2023/03/15 13:45:16;;;;;;;6.60;1.73;;;8.80;99.70;;;;;;6201911;22;1291430;-92
2023/03/15 13:47:44;;;;;;;10.00;2.45;;;8.70;99.70;;;;;;6247841;23;20027;-89
2023/03/15 13:50:20;;;;;;;8.73;2.08;;;8.50;99.90;;;;;;6221847;23;20027;-92
2023/03/15 13:52:47;;;;;;;8.10;1.75;;;8.50;99.90;;;;;;6222921;23;20019;-92
2023/03/15 13:55:19;;;;;;;7.55;1.85;;;8.70;99.90;;;;;;6221173;23;20023;-89
2023/03/15 13:57:45;;;;;;;9.68;1.98;;;8.70;99.90;;;;;;6195453;23;20094;-90
2023/03/15 14:00:15;;;;;;;8.35;1.98;;;8.90;99.90;;;;;;6248306;23;20016;-89
2023/03/15 14:02:58;;;;;;;8.43;1.70;;;9.00;99.90;;;;;;6247438;23;20012;-91
2023/03/15 14:05:27;;;;;;;7.57;1.50;;;9.20;99.50;;;;;;6242445;23;20016;-93
2023/03/15 14:08:01;;;;;;;8.00;1.60;;;9.40;97.30;;;;;;6241047;23;20008;-88
2023/03/15 14:10:31;;;;;;;7.10;1.67;;;9.50;96.60;;;;;;6241192;23;20024;-88
2023/03/15 14:12:58;;;;;;;6.72;1.40;;;9.40;98.40;;;;;;6213484;23;20091;-89
2023/03/15 14:15:34;;;;;;;5.80;1.42;;;9.50;99.10;;;;;;6213145;23;20020;-87
2023/03/15 14:18:15;;;;;;;6.68;1.55;;;9.60;99.90;;;;;;6214238;23;20069;-87
2023/03/15 14:20:52;;;;;;;5.50;1.60;;;9.70;98.00;;;;;;6213396;23;20066;-88
2023/03/15 14:23:23;;;;;;;6.50;1.38;;;9.80;98.10;;;;;;6212996;23;20059;-89
2023/03/15 14:26:15;;;;;;;5.68;1.30;;;9.70;96.00;;;;;;6187991;23;20012;-88
2023/03/15 14:28:55;;;;;;;6.68;1.60;;;9.80;95.70;;;;;;6236143;23;20027;-89
2023/03/15 14:31:28;;;;;;;4.57;1.27;;;9.70;97.50;;;;;;6213269;23;20020;-90
2023/03/15 14:34:03;;;;;;;5.15;1.40;;;9.80;94.60;;;;;;6213826;23;20040;-91
2023/03/15 14:36:38;;;;;;;6.55;1.90;;;9.70;95.20;;;;;;6240426;23;20418;-87
2023/03/15 14:39:23;;;;;;;5.43;1.48;;;9.50;97.00;;;;;;6213755;23;20070;-88
2023/03/15 14:41:48;;;;;;;6.63;1.65;;;9.40;96.20;;;;;;6240659;23;20059;-89
2023/03/15 14:44:14;;;;;;;5.43;1.42;;;9.30;97.30;;;;;;6211627;23;20016;-87
2023/03/15 14:46:40;;;;;;;7.10;1.98;;;9.30;98.50;;;;;;6240992;23;20426;-87
2023/03/15 14:49:05;;;;;;;5.40;1.80;;;9.20;98.70;;;;;;6240358;23;20392;-95
2023/03/15 14:51:32;;;;;;;6.82;1.90;;;9.40;95.70;;;;;;6239889;23;20012;-86
2023/03/15 14:53:59;;;;;;;7.00;1.70;;;9.50;94.50;;;;;;6212972;23;20008;-87
2023/03/15 14:56:25;;;;;;;8.02;2.20;;;9.40;96.20;;;;;;6212760;23;20527;-86
2023/03/15 14:58:52;;;;;;;7.22;1.90;;;9.30;98.30;;;;;;6240811;23;20012;-87
2023/03/15 15:01:21;;;;;;;8.75;2.05;;;9.30;98.10;;;;;;6240734;23;20008;-88
2023/03/15 15:04:00;;;;;;;5.95;1.60;;;9.20;96.90;;;;;;6213258;23;20048;-87
2023/03/15 15:06:27;;;;;;;7.72;1.63;;;9.20;96.80;;;;;;6240536;23;20016;-86
2023/03/15 15:08:56;;;;;;;7.22;1.92;;;9.10;95.70;;;;;;6238968;23;20012;-86
2023/03/15 15:11:21;;;;;;;6.80;1.67;;;9.10;94.60;;;;;;6239786;23;20016;-86
2023/03/15 15:13:47;;;;;;;5.57;1.70;;;9.10;93.20;;;;;;6240270;23;20441;-87
2023/03/15 15:16:13;;;;;;;4.95;1.30;;;9.10;91.10;;;;;;6239782;23;20018;-87
2023/03/15 15:18:38;;;;;;;6.20;1.38;;;9.10;90.10;;;;;;6239392;23;20020;-89
2023/03/15 15:21:12;;;;;;;7.63;1.48;;;9.00;90.90;;;;;;6212495;23;20510;-87
2023/03/15 15:23:40;;;;;;;5.35;1.30;;;8.90;90.30;;;;;;6239632;23;20375;-90
2023/03/15 15:26:12;;;;;;;7.20;1.42;;;9.00;89.50;;;;;;6186547;23;20051;-88
2023/03/15 15:28:37;;;;;;;4.95;1.10;;;8.90;90.50;;;;;;6243708;23;20019;-92
2023/03/15 15:31:05;;;;;;;5.70;1.38;;;9.00;89.20;;;;;;6214783;23;20012;-96
2023/03/15 15:33:32;;;;;;;4.53;1.20;;;9.10;89.30;;;;;;6229500;23;20026;-96
2023/03/15 15:35:58;;;;;;;5.95;1.60;;;9.20;85.30;;;;;;6250089;23;20059;-93
2023/03/15 15:38:31;;;;;;;6.00;1.30;;;9.20;86.60;;;;;;6222252;23;20008;-94
2023/03/15 15:40:56;;;;;;;5.53;1.50;;;9.30;85.10;;;;;;6241963;23;20087;-90
2023/03/15 15:43:22;;;;;;;5.93;1.27;;;9.30;85.90;;;;;;6240686;23;20043;-91
2023/03/15 15:45:47;;;;;;;7.35;1.40;;;9.30;88.10;;;;;;6241333;23;20020;-90
2023/03/15 15:48:13;;;;;;;6.30;1.45;;;9.50;87.30;;;;;;6211838;23;20012;-91
2023/03/15 15:50:39;;;;;;;5.90;1.40;;;9.50;86.90;;;;;;6213862;23;20023;-91
2023/03/15 15:53:05;;;;;;;6.63;1.50;;;9.50;87.30;;;;;;6242431;23;20012;-92
2023/03/15 15:55:35;;;;;;;6.32;1.85;;;9.50;90.30;;;;;;6241117;23;20031;-92